Pagrindinis puslapis
METAR-TAF:

METAR-TAF

Oro uostai :

Såtenäs, Švedija

platuma: 58-26N, ilguma: 012-42E, Aukštis: 54 m

Dabartinis oras

Ataskaita buvo paskelbta 25 minutes, ne 04:20 UTC
Vėjas 14 kt iš Pietvakarių
Temperatūra 4°C
Drėgmė 87%
Slėgis 996 hPa
Matomumas 10 km arba daugiau
nėra debesų žemiau 1500 m ir nėra kamuolinių lietaus debesų

METAR: ESIB 020420Z 23014KT CAVOK 04/02 Q0996

Laikas: 06:45 (04:45 UTC)

Prognozė

Ataskaita buvo paskelbta 17 valandos ir 15 minutes, ne 11:30 UTC
Prognozė galioja nuo 01 metu 12 UTC su 01 metu 16 UTC
Vėjas 8 kt iš Pietvakarių su gūsio iki 16 kt
Matomumas 10 km arba daugiau
nėra debesų žemiau 1500 m ir nėra kamuolinių lietaus debesų
Tapsmas
nuo 01 metu 12 UTC su 01 metu 14 UTC
Vėjas 10 kt iš Pietvakarių su gūsio iki 22 kt

TAF: ESIB 011130Z 0112/0116 23008G16KT CAVOK BECMG 0112/0114 23010G22KT RMK MIL

Orai ataskaitas ir orų prognozės (METAR, TAF).

turimą stotys yra geltonos ir raudonos taškus žemėlapyje.

Perkelti pele per norėdami pamatyti stoties vardą.

Tada spustelėkite, norėdami matyti oro stebėjimo ir prognozės.

Norėdami pakeisti žemėlapį: spustelėkite ant žalios mygtukų su juodo kryžiaus žemyn,; žalią mygtuką su brūkšneliu, jei norite nutolinti; arba žalių rodyklių gretimoms žemėlapius.


METAR-TAF: